Time;durP1;ratioP1;P1;durP2;ratioP2;P2;SDS_P1;SDS_P2;PMS_P1;PMS_P2;Temp;Humidity;BMP_temperature;BMP_pressure;BME280_temperature;BME280_humidity;BME280_pressure;Samples;Min_cycle;Max_cycle;Signal;HPM_P1;HPM_P2
2021/12/18 00:00:20;;;;;;;14.55;8.88;;;;;;;;;;5078975;27;91600;-73
2021/12/18 00:02:49;;;;;;;14.93;9.05;;;;;;;;;;5059877;27;95700;-73
2021/12/18 00:05:16;;;;;;;14.90;9.07;;;;;;;;;;5077982;27;93607;-73
2021/12/18 00:07:42;;;;;;;13.25;8.23;;;;;;;;;;5076631;27;94645;-73
2021/12/18 00:10:08;;;;;;;14.35;8.20;;;;;;;;;;5077633;27;95634;-73
2021/12/18 00:12:35;;;;;;;14.38;8.23;;;;;;;;;;5080597;27;93538;-73
2021/12/18 00:15:02;;;;;;;15.10;8.93;;;;;;;;;;5060083;27;93398;-73
2021/12/18 00:17:28;;;;;;;14.90;8.73;;;;;;;;;;5077733;27;93040;-73
2021/12/18 00:19:54;;;;;;;13.98;8.82;;;;;;;;;;5077874;27;92176;-73
2021/12/18 00:22:21;;;;;;;14.30;8.45;;;;;;;;;;5077806;27;93261;-73
2021/12/18 00:24:47;;;;;;;13.40;8.25;;;;;;;;;;5077924;27;92527;-73
2021/12/18 00:27:13;;;;;;;14.02;8.75;;;;;;;;;;5078230;27;92149;-73
2021/12/18 00:29:40;;;;;;;14.77;8.90;;;;;;;;;;5059763;27;95220;-73
2021/12/18 00:32:06;;;;;;;12.68;8.73;;;;;;;;;;5075986;27;95509;-73
2021/12/18 00:34:33;;;;;;;15.07;9.32;;;;;;;;;;5083531;27;92425;-73
2021/12/18 00:36:59;;;;;;;13.25;8.35;;;;;;;;;;5081236;27;93667;-74
2021/12/18 00:39:28;;;;;;;16.50;9.05;;;;;;;;;;5081211;27;92350;-74
2021/12/18 00:42:19;;;;;;;14.63;9.07;;;;;;;;;;5081420;27;93300;-73
2021/12/18 00:44:45;;;;;;;14.98;9.77;;;;;;;;;;5081071;27;93579;-74
2021/12/18 00:47:12;;;;;;;14.63;8.93;;;;;;;;;;5081383;27;92344;-73
2021/12/18 00:49:38;;;;;;;17.67;9.75;;;;;;;;;;5081226;27;93213;-73
2021/12/18 00:52:05;;;;;;;18.33;9.45;;;;;;;;;;5080900;27;94002;-73
2021/12/18 00:54:31;;;;;;;15.90;9.63;;;;;;;;;;5081259;27;92363;-73
2021/12/18 00:56:58;;;;;;;19.60;10.00;;;;;;;;;;5082541;27;94740;-73
2021/12/18 00:59:25;;;;;;;18.40;9.93;;;;;;;;;;5080263;27;92339;-73
2021/12/18 01:01:51;;;;;;;15.77;8.88;;;;;;;;;;5080905;27;93469;-73
2021/12/18 01:04:18;;;;;;;18.25;8.88;;;;;;;;;;5080500;27;93620;-73
2021/12/18 01:06:44;;;;;;;16.08;8.32;;;;;;;;;;5080975;27;92676;-73
2021/12/18 01:09:11;;;;;;;12.35;8.45;;;;;;;;;;5081195;27;93725;-73
2021/12/18 01:11:44;;;;;;;13.95;9.27;;;;;;;;;;5080409;27;93510;-73
2021/12/18 01:24:51;;;;;;;17.30;9.70;;;;;;;;;;5080659;27;93801;-73
2021/12/18 01:27:17;;;;;;;19.63;10.82;;;;;;;;;;5066484;27;92558;-73
2021/12/18 01:29:44;;;;;;;19.95;10.60;;;;;;;;;;5086940;27;92993;-73
2021/12/18 01:32:10;;;;;;;20.33;10.88;;;;;;;;;;5084206;27;92384;-73
2021/12/18 01:34:37;;;;;;;20.45;11.38;;;;;;;;;;5084667;27;92147;-73
2021/12/18 01:37:04;;;;;;;22.02;12.13;;;;;;;;;;5081289;27;93438;-73
2021/12/18 01:39:30;;;;;;;28.38;12.15;;;;;;;;;;5083673;27;92862;-73
2021/12/18 01:44:54;;;;;;;27.40;12.63;;;;;;;;;;5079413;27;93672;-72
2021/12/18 01:52:53;;;;;;;24.35;11.40;;;;;;;;;;5079369;27;92982;-73
2021/12/18 01:55:21;;;;;;;26.63;12.00;;;;;;;;;;5079668;27;92344;-73
2021/12/18 01:57:47;;;;;;;21.05;10.90;;;;;;;;;;5079450;27;93559;-73
2021/12/18 02:00:18;;;;;;;23.08;12.15;;;;;;;;;;5079391;27;93628;-73
2021/12/18 02:02:45;;;;;;;21.50;11.03;;;;;;;;;;5082172;27;92370;-73
2021/12/18 02:05:11;;;;;;;19.25;10.57;;;;;;;;;;5079602;27;93313;-73
2021/12/18 02:07:39;;;;;;;21.02;11.05;;;;;;;;;;5079185;27;92156;-73
2021/12/18 02:10:09;;;;;;;21.50;10.40;;;;;;;;;;5079156;27;93651;-73
2021/12/18 02:21:17;;;;;;;13.13;7.78;;;;;;;;;;4977102;28;93667;-73
2021/12/18 02:23:44;;;;;;;15.60;9.07;;;;;;;;;;4976911;28;92388;-73
2021/12/18 02:26:11;;;;;;;19.02;9.20;;;;;;;;;;5031735;27;93496;-73
2021/12/18 02:28:39;;;;;;;14.57;8.63;;;;;;;;;;5079640;27;93276;-72
2021/12/18 02:31:05;;;;;;;14.32;8.02;;;;;;;;;;5080238;27;93820;-73
2021/12/18 02:33:31;;;;;;;12.55;7.47;;;;;;;;;;5079494;27;93670;-73
2021/12/18 02:36:00;;;;;;;13.25;7.13;;;;;;;;;;5079310;27;92269;-73
2021/12/18 02:38:34;;;;;;;16.75;7.95;;;;;;;;;;5078043;27;94548;-73
2021/12/18 02:41:10;;;;;;;12.57;7.47;;;;;;;;;;5079332;27;93573;-73
2021/12/18 02:43:38;;;;;;;14.75;8.43;;;;;;;;;;5079480;27;93059;-73
2021/12/18 02:46:08;;;;;;;13.98;7.78;;;;;;;;;;5079617;27;93452;-73
2021/12/18 02:48:35;;;;;;;15.85;8.13;;;;;;;;;;5081788;27;93737;-73
2021/12/18 02:51:03;;;;;;;18.85;8.23;;;;;;;;;;5079153;27;93797;-73
2021/12/18 02:53:29;;;;;;;17.60;9.02;;;;;;;;;;5078945;27;93524;-72
2021/12/18 02:55:57;;;;;;;14.98;8.10;;;;;;;;;;5079519;27;91548;-73
2021/12/18 02:58:23;;;;;;;16.83;8.30;;;;;;;;;;5079228;27;92954;-73
2021/12/18 03:00:51;;;;;;;15.05;8.13;;;;;;;;;;5079026;27;93201;-73
2021/12/18 03:03:18;;;;;;;14.07;8.07;;;;;;;;;;5077009;27;94703;-73
2021/12/18 03:05:57;;;;;;;12.43;7.60;;;;;;;;;;5079028;27;95091;-73
2021/12/18 03:08:37;;;;;;;15.00;8.02;;;;;;;;;;5078836;27;93564;-73
2021/12/18 03:20:14;;;;;;;15.20;7.88;;;;;;;;;;5078971;27;93589;-73
2021/12/18 03:22:50;;;;;;;23.85;7.93;;;;;;;;;;5079045;27;92760;-73
2021/12/18 03:25:22;;;;;;;18.38;8.25;;;;;;;;;;5078724;27;92335;-73
2021/12/18 03:27:49;;;;;;;24.17;8.77;;;;;;;;;;5078603;27;93446;-73
2021/12/18 03:30:15;;;;;;;19.17;7.07;;;;;;;;;;5076655;27;96347;-73
2021/12/18 03:32:42;;;;;;;17.95;7.55;;;;;;;;;;5078565;27;92345;-73
2021/12/18 03:35:09;;;;;;;15.60;7.55;;;;;;;;;;5081721;27;93670;-72
2021/12/18 03:37:36;;;;;;;20.40;7.20;;;;;;;;;;5078537;27;92273;-72
2021/12/18 03:40:04;;;;;;;18.35;7.57;;;;;;;;;;5078501;27;93350;-73
2021/12/18 03:42:30;;;;;;;11.13;5.75;;;;;;;;;;5078355;27;93709;-73
2021/12/18 03:44:57;;;;;;;16.05;5.85;;;;;;;;;;5077993;27;93116;-73
2021/12/18 03:47:23;;;;;;;14.40;6.45;;;;;;;;;;5078897;27;93536;-73
2021/12/18 03:49:50;;;;;;;17.17;6.32;;;;;;;;;;5078331;27;93626;-73
2021/12/18 03:52:16;;;;;;;12.98;6.15;;;;;;;;;;5078234;27;92256;-73
2021/12/18 03:54:42;;;;;;;14.45;6.47;;;;;;;;;;5079878;27;94809;-73
2021/12/18 03:57:09;;;;;;;34.53;6.53;;;;;;;;;;5078431;27;92152;-72
2021/12/18 03:59:35;;;;;;;12.65;5.97;;;;;;;;;;5078343;27;93779;-72
2021/12/18 04:02:02;;;;;;;12.65;5.25;;;;;;;;;;5078271;27;93069;-72
2021/12/18 04:04:28;;;;;;;9.02;4.47;;;;;;;;;;5078076;27;92300;-73
2021/12/18 04:06:55;;;;;;;8.68;4.53;;;;;;;;;;5078166;27;93308;-73
2021/12/18 04:09:21;;;;;;;13.60;4.90;;;;;;;;;;5077331;27;93538;-73
2021/12/18 04:11:48;;;;;;;8.15;4.50;;;;;;;;;;5078249;27;91489;-73
2021/12/18 04:14:17;;;;;;;8.75;4.20;;;;;;;;;;5077834;27;92743;-73
2021/12/18 04:16:44;;;;;;;11.75;4.00;;;;;;;;;;5080943;27;93516;-72
2021/12/18 04:19:10;;;;;;;7.80;3.60;;;;;;;;;;5076453;27;94675;-72
2021/12/18 04:21:37;;;;;;;7.43;3.75;;;;;;;;;;5077723;27;93957;-73
2021/12/18 04:24:04;;;;;;;7.47;2.80;;;;;;;;;;5077990;27;92287;-73
2021/12/18 04:26:31;;;;;;;4.80;3.20;;;;;;;;;;5077652;27;93661;-73
2021/12/18 04:28:57;;;;;;;6.07;3.05;;;;;;;;;;5077615;27;93620;-73
2021/12/18 04:31:24;;;;;;;5.03;3.00;;;;;;;;;;5078281;27;92160;-73
2021/12/18 04:33:50;;;;;;;6.63;3.20;;;;;;;;;;5077942;27;93726;-73
2021/12/18 04:36:17;;;;;;;7.60;2.88;;;;;;;;;;5078398;27;92643;-73
2021/12/18 04:38:43;;;;;;;4.75;2.90;;;;;;;;;;5080858;27;92303;-73
2021/12/18 04:41:11;;;;;;;8.27;2.92;;;;;;;;;;5077086;27;93677;-73
2021/12/18 04:43:37;;;;;;;5.60;3.15;;;;;;;;;;5076058;27;94591;-73
2021/12/18 04:46:04;;;;;;;3.22;2.38;;;;;;;;;;5077706;27;94907;-73
2021/12/18 04:48:30;;;;;;;4.25;2.65;;;;;;;;;;5077343;27;93756;-73
2021/12/18 04:50:56;;;;;;;5.40;2.58;;;;;;;;;;5077718;27;92220;-73
2021/12/18 04:53:23;;;;;;;3.80;2.15;;;;;;;;;;5077523;27;93381;-73
2021/12/18 04:55:49;;;;;;;10.80;3.13;;;;;;;;;;5077041;27;93763;-73
2021/12/18 04:58:15;;;;;;;6.90;2.55;;;;;;;;;;5077539;27;92280;-73
2021/12/18 05:00:46;;;;;;;5.57;2.40;;;;;;;;;;5080833;27;93404;-73
2021/12/18 05:03:14;;;;;;;4.32;2.58;;;;;;;;;;5076550;27;92341;-73
2021/12/18 05:05:41;;;;;;;6.70;2.42;;;;;;;;;;5077485;27;93401;-74
2021/12/18 05:08:07;;;;;;;11.07;2.45;;;;;;;;;;5075542;27;96327;-73
2021/12/18 05:10:34;;;;;;;7.50;2.42;;;;;;;;;;5077475;27;92366;-73
2021/12/18 05:13:00;;;;;;;3.90;2.53;;;;;;;;;;5076952;27;93361;-73
2021/12/18 05:15:26;;;;;;;5.60;2.65;;;;;;;;;;5076554;27;93620;-73
2021/12/18 05:17:53;;;;;;;5.80;2.50;;;;;;;;;;5077322;27;92226;-73
2021/12/18 05:20:19;;;;;;;12.25;2.83;;;;;;;;;;5077873;27;93612;-73
2021/12/18 05:22:45;;;;;;;8.02;2.90;;;;;;;;;;5084051;27;93548;-73
2021/12/18 05:25:12;;;;;;;6.25;2.72;;;;;;;;;;5081361;27;93229;-73
2021/12/18 05:27:38;;;;;;;24.15;2.83;;;;;;;;;;5080593;27;93451;-73
2021/12/18 05:30:06;;;;;;;16.92;3.17;;;;;;;;;;5062134;27;92410;-73
2021/12/18 05:32:32;;;;;;;17.92;2.97;;;;;;;;;;5079158;27;94700;-73
2021/12/18 05:34:59;;;;;;;31.73;3.20;;;;;;;;;;5083600;27;93309;-73
2021/12/18 05:39:51;;;;;;;18.20;2.90;;;;;;;;;;5083615;27;93592;-73
2021/12/18 05:42:18;;;;;;;24.90;3.13;;;;;;;;;;5083352;27;93588;-73
2021/12/18 05:44:44;;;;;;;5.53;2.83;;;;;;;;;;5083972;27;92375;-73
2021/12/18 05:47:11;;;;;;;18.48;2.67;;;;;;;;;;5080554;27;93657;-73
2021/12/18 05:49:38;;;;;;;41.78;3.13;;;;;;;;;;5081077;27;91590;-73
2021/12/18 05:52:05;;;;;;;8.60;2.70;;;;;;;;;;5080518;27;92666;-73
2021/12/18 05:54:35;;;;;;;19.75;2.90;;;;;;;;;;5080181;27;93493;-73
2021/12/18 05:57:05;;;;;;;57.25;2.80;;;;;;;;;;5078742;27;94742;-74
2021/12/18 05:59:31;;;;;;;28.90;2.50;;;;;;;;;;5080471;27;95009;-73
2021/12/18 06:01:57;;;;;;;22.13;2.33;;;;;;;;;;5080090;27;93806;-73
2021/12/18 06:04:24;;;;;;;30.80;1.98;;;;;;;;;;5083185;27;92266;-73
2021/12/18 06:06:50;;;;;;;22.30;1.95;;;;;;;;;;5059691;27;93734;-73
2021/12/18 06:09:17;;;;;;;21.75;1.45;;;;;;;;;;5079598;27;94546;-73
2021/12/18 06:11:43;;;;;;;21.40;1.25;;;;;;;;;;5079754;27;93253;-73
2021/12/18 06:14:09;;;;;;;6.07;1.10;;;;;;;;;;5080173;27;92839;-72
2021/12/18 06:16:36;;;;;;;10.25;1.33;;;;;;;;;;5079738;27;94541;-74
2021/12/18 06:19:02;;;;;;;2.25;1.50;;;;;;;;;;5079821;27;92901;-74
2021/12/18 06:21:28;;;;;;;1.95;1.60;;;;;;;;;;5077983;27;95584;-74
2021/12/18 06:23:55;;;;;;;48.38;2.35;;;;;;;;;;5079273;27;92344;-74
2021/12/18 06:26:23;;;;;;;32.30;2.00;;;;;;;;;;5082665;27;93595;-72
2021/12/18 06:28:49;;;;;;;44.92;2.83;;;;;;;;;;5061679;27;92329;-74
2021/12/18 06:31:31;;;;;;;24.73;2.47;;;;;;;;;;5063895;27;93518;-74
2021/12/18 06:33:58;;;;;;;4.05;1.60;;;;;;;;;;5079678;27;93618;-74
2021/12/18 06:36:25;;;;;;;2.83;1.17;;;;;;;;;;5079605;27;92343;-73
2021/12/18 06:38:51;;;;;;;1.30;1.20;;;;;;;;;;5079700;27;93454;-74
2021/12/18 06:41:18;;;;;;;8.73;1.55;;;;;;;;;;5079269;27;93588;-74
2021/12/18 06:43:44;;;;;;;7.65;1.48;;;;;;;;;;5079604;27;92382;-74
2021/12/18 06:46:11;;;;;;;3.28;1.45;;;;;;;;;;5077841;27;94599;-74
2021/12/18 06:48:37;;;;;;;10.25;2.78;;;;;;;;;;5082434;27;93542;-74
2021/12/18 06:51:03;;;;;;;11.60;2.10;;;;;;;;;;5078866;27;92905;-74
2021/12/18 06:53:30;;;;;;;5.78;1.42;;;;;;;;;;5079022;27;94357;-74
2021/12/18 06:55:56;;;;;;;11.10;1.70;;;;;;;;;;5079445;27;92322;-74
2021/12/18 06:58:23;;;;;;;6.57;1.75;;;;;;;;;;5079384;27;92930;-74
2021/12/18 07:00:52;;;;;;;15.45;1.90;;;;;;;;;;5079119;27;93551;-74
2021/12/18 07:03:19;;;;;;;8.85;1.63;;;;;;;;;;5079643;27;91598;-74
2021/12/18 07:05:46;;;;;;;16.20;1.83;;;;;;;;;;5078744;27;92874;-74
2021/12/18 07:08:13;;;;;;;20.45;2.33;;;;;;;;;;5079006;27;93540;-73
2021/12/18 07:10:39;;;;;;;15.73;1.95;;;;;;;;;;5080481;27;94618;-74
2021/12/18 07:13:05;;;;;;;14.15;2.17;;;;;;;;;;5078946;27;93745;-74
2021/12/18 07:15:32;;;;;;;9.15;2.08;;;;;;;;;;5079238;27;92135;-74
2021/12/18 07:17:58;;;;;;;21.10;2.50;;;;;;;;;;5078732;27;93446;-73
2021/12/18 07:20:27;;;;;;;4.28;2.20;;;;;;;;;;5078481;27;94010;-74
2021/12/18 07:22:54;;;;;;;2.30;2.03;;;;;;;;;;5078885;27;92276;-74
2021/12/18 07:25:20;;;;;;;2.75;2.45;;;;;;;;;;5078868;27;92795;-74
2021/12/18 07:27:47;;;;;;;2.63;2.25;;;;;;;;;;5079060;27;92348;-74
2021/12/18 07:30:13;;;;;;;22.20;2.80;;;;;;;;;;5061027;27;92607;-74
2021/12/18 07:32:40;;;;;;;6.93;2.70;;;;;;;;;;5081490;27;93262;-74
2021/12/18 07:35:07;;;;;;;15.23;2.50;;;;;;;;;;5076957;27;94727;-76
2021/12/18 07:37:33;;;;;;;17.63;2.10;;;;;;;;;;5078513;27;95870;-77
2021/12/18 07:39:59;;;;;;;16.63;2.03;;;;;;;;;;5078612;27;94177;-74
2021/12/18 07:42:26;;;;;;;2.42;2.20;;;;;;;;;;5078321;27;92258;-75
2021/12/18 07:44:53;;;;;;;1.90;1.80;;;;;;;;;;5077553;27;93372;-75
2021/12/18 07:47:19;;;;;;;1.60;1.50;;;;;;;;;;5077799;27;94712;-79
2021/12/18 07:49:45;;;;;;;1.38;1.27;;;;;;;;;;5043433;27;92225;-73
2021/12/18 07:52:12;;;;;;;1.85;1.67;;;;;;;;;;5063681;27;93353;-76
2021/12/18 07:54:39;;;;;;;7.43;2.05;;;;;;;;;;5078416;27;92357;-75
2021/12/18 07:57:05;;;;;;;2.17;1.98;;;;;;;;;;5060467;27;92952;-73
2021/12/18 07:59:31;;;;;;;2.30;2.10;;;;;;;;;;5076245;27;95791;-73
2021/12/18 08:02:01;;;;;;;1.60;1.50;;;;;;;;;;5077837;27;92515;-74
2021/12/18 08:04:27;;;;;;;1.40;1.30;;;;;;;;;;5078199;27;93401;-74
2021/12/18 08:06:58;;;;;;;8.68;1.40;;;;;;;;;;5077954;27;93535;-73
2021/12/18 08:09:24;;;;;;;2.03;1.50;;;;;;;;;;5078259;27;92133;-73
2021/12/18 08:11:51;;;;;;;1.40;1.30;;;;;;;;;;5077796;27;93451;-73
2021/12/18 08:14:17;;;;;;;2.50;1.33;;;;;;;;;;5080977;27;93555;-73
2021/12/18 08:16:44;;;;;;;2.13;1.92;;;;;;;;;;5077928;27;93384;-71
2021/12/18 08:19:10;;;;;;;5.45;2.00;;;;;;;;;;5077788;27;93968;-71
2021/12/18 08:21:36;;;;;;;2.15;1.92;;;;;;;;;;5078036;27;92260;-73
2021/12/18 08:24:03;;;;;;;2.10;1.55;;;;;;;;;;5076423;27;94780;-73
2021/12/18 08:26:29;;;;;;;1.75;1.65;;;;;;;;;;5077790;27;94109;-73
2021/12/18 08:28:55;;;;;;;1.52;1.42;;;;;;;;;;5077857;27;92335;-73
2021/12/18 08:31:22;;;;;;;3.17;1.55;;;;;;;;;;5059704;27;92722;-73
2021/12/18 08:33:48;;;;;;;2.95;1.77;;;;;;;;;;5077486;27;93538;-73
2021/12/18 08:36:15;;;;;;;3.33;1.70;;;;;;;;;;5081113;27;92229;-74
2021/12/18 08:38:41;;;;;;;1.88;1.70;;;;;;;;;;5077730;27;93892;-73
2021/12/18 08:41:08;;;;;;;5.85;1.75;;;;;;;;;;5078229;27;91666;-73
2021/12/18 08:43:35;;;;;;;5.10;2.10;;;;;;;;;;5059514;27;95298;-73
2021/12/18 08:46:02;;;;;;;9.98;2.13;;;;;;;;;;5077178;27;93113;-74
2021/12/18 08:48:28;;;;;;;6.72;2.20;;;;;;;;;;5075813;27;94870;-76
2021/12/18 08:50:54;;;;;;;17.65;2.30;;;;;;;;;;5077733;27;95751;-75
2021/12/18 08:53:21;;;;;;;27.38;2.90;;;;;;;;;;5077216;27;93831;-75
2021/12/18 08:55:47;;;;;;;14.30;2.95;;;;;;;;;;5080413;27;92157;-74
2021/12/18 08:58:13;;;;;;;4.95;2.80;;;;;;;;;;5083900;27;93325;-75
2021/12/18 09:00:40;;;;;;;3.72;2.78;;;;;;;;;;5081349;27;92346;-72
2021/12/18 09:03:06;;;;;;;4.25;2.28;;;;;;;;;;5081270;27;92834;-73
2021/12/18 09:05:34;;;;;;;3.80;2.50;;;;;;;;;;5081337;27;92463;-73
2021/12/18 09:08:02;;;;;;;2.60;2.40;;;;;;;;;;5028514;27;92494;-73
2021/12/18 09:10:28;;;;;;;2.53;2.10;;;;;;;;;;5081331;27;93221;-73
2021/12/18 09:12:55;;;;;;;3.80;2.15;;;;;;;;;;5078660;27;95715;-72
2021/12/18 09:15:21;;;;;;;2.85;2.05;;;;;;;;;;5080984;27;92132;-71
2021/12/18 09:17:48;;;;;;;2.33;2.13;;;;;;;;;;5080997;27;92824;-70
2021/12/18 09:20:15;;;;;;;1.70;1.60;;;;;;;;;;5083986;27;93697;-74
2021/12/18 09:22:41;;;;;;;1.80;1.70;;;;;;;;;;5080562;27;93710;-71
2021/12/18 09:25:08;;;;;;;1.73;1.60;;;;;;;;;;5080425;27;94140;-71
2021/12/18 09:27:36;;;;;;;1.92;1.83;;;;;;;;;;5071555;27;93090;-79
2021/12/18 09:30:07;;;;;;;2.25;1.77;;;;;;;;;;5054449;27;94423;-74
2021/12/18 09:32:33;;;;;;;2.10;1.90;;;;;;;;;;5087493;27;92733;-73
2021/12/18 09:35:00;;;;;;;4.72;2.08;;;;;;;;;;5085059;27;92316;-73
2021/12/18 09:37:26;;;;;;;2.47;2.28;;;;;;;;;;5085525;27;94761;-73
2021/12/18 09:39:52;;;;;;;2.47;2.05;;;;;;;;;;5084114;27;93671;-73
2021/12/18 09:42:19;;;;;;;1.90;1.80;;;;;;;;;;5083778;27;92375;-74
2021/12/18 09:44:48;;;;;;;3.63;2.08;;;;;;;;;;5080278;27;93671;-73
2021/12/18 09:47:14;;;;;;;2.00;1.90;;;;;;;;;;5080605;27;92124;-73
2021/12/18 09:49:40;;;;;;;2.22;2.03;;;;;;;;;;5080271;27;93651;-73
2021/12/18 09:52:07;;;;;;;2.30;2.20;;;;;;;;;;5079992;27;93699;-74
2021/12/18 09:54:33;;;;;;;2.55;2.35;;;;;;;;;;5080291;27;91557;-74
2021/12/18 09:57:00;;;;;;;2.50;2.30;;;;;;;;;;5079992;27;92814;-74
2021/12/18 09:59:26;;;;;;;2.63;2.40;;;;;;;;;;5079841;27;93802;-74
2021/12/18 10:01:52;;;;;;;5.85;2.88;;;;;;;;;;5081807;27;94734;-73
2021/12/18 10:04:24;;;;;;;3.20;2.90;;;;;;;;;;5061619;27;93022;-73
2021/12/18 10:06:50;;;;;;;6.25;3.33;;;;;;;;;;5044294;27;92407;-74
2021/12/18 10:09:17;;;;;;;4.22;2.95;;;;;;;;;;5079643;27;93211;-74
2021/12/18 10:11:46;;;;;;;7.88;2.83;;;;;;;;;;5079580;27;93586;-74
2021/12/18 10:14:13;;;;;;;7.18;2.90;;;;;;;;;;5061624;27;92420;-74
2021/12/18 10:16:44;;;;;;;11.65;2.83;;;;;;;;;;5080037;27;93521;-74
2021/12/18 10:19:27;;;;;;;6.13;3.27;;;;;;;;;;5080487;27;92773;-74
2021/12/18 10:21:55;;;;;;;6.43;3.38;;;;;;;;;;5079869;27;92288;-74
2021/12/18 10:24:21;;;;;;;17.50;3.15;;;;;;;;;;5082733;27;93514;-74
2021/12/18 10:26:48;;;;;;;8.45;3.00;;;;;;;;;;5078054;27;95006;-74
2021/12/18 10:29:25;;;;;;;3.88;2.90;;;;;;;;;;5079528;27;95818;-74
2021/12/18 10:31:52;;;;;;;16.63;3.63;;;;;;;;;;5079643;27;93310;-74
2021/12/18 10:34:23;;;;;;;2.90;2.33;;;;;;;;;;5079617;27;92536;-75
2021/12/18 10:37:09;;;;;;;13.47;3.00;;;;;;;;;;5079688;27;93328;-74
2021/12/18 10:39:39;;;;;;;5.43;3.10;;;;;;;;;;5079193;27;92977;-74
2021/12/18 10:42:19;;;;;;;8.30;2.42;;;;;;;;;;5071814;27;92244;-74
2021/12/18 10:45:04;;;;;;;6.55;3.28;;;;;;;;;;5079775;27;93741;-74
2021/12/18 10:47:43;;;;;;;8.73;2.90;;;;;;;;;;5082592;27;93540;-74
2021/12/18 10:50:51;;;;;;;12.85;3.63;;;;;;;;;;5079386;27;93312;-74
2021/12/18 10:53:17;;;;;;;5.50;3.50;;;;;;;;;;4974290;28;96274;-74
2021/12/18 10:55:46;;;;;;;11.85;3.83;;;;;;;;;;4976771;28;92361;-74
2021/12/18 10:58:15;;;;;;;14.18;3.67;;;;;;;;;;5028308;27;93465;-74
2021/12/18 11:00:43;;;;;;;4.72;3.80;;;;;;;;;;5079028;27;93485;-74
2021/12/18 11:03:19;;;;;;;7.40;3.80;;;;;;;;;;5079228;27;92370;-74
2021/12/18 11:06:22;;;;;;;12.88;3.67;;;;;;;;;;5078387;27;93406;-74
2021/12/18 11:08:52;;;;;;;17.88;3.60;;;;;;;;;;4975899;28;93981;-73
2021/12/18 11:14:11;;;;;;;9.73;3.28;;;;;;;;;;5078336;27;93899;-74
2021/12/18 11:16:39;;;;;;;3.22;3.03;;;;;;;;;;5078953;27;92332;-74
2021/12/18 11:19:06;;;;;;;4.07;3.22;;;;;;;;;;5076109;27;94631;-74
2021/12/18 11:21:33;;;;;;;3.65;3.35;;;;;;;;;;5078695;27;93616;-73
2021/12/18 11:24:06;;;;;;;3.72;3.42;;;;;;;;;;5078899;27;92087;-74
2021/12/18 11:26:55;;;;;;;3.45;3.15;;;;;;;;;;5060599;27;93091;-74
2021/12/18 11:29:25;;;;;;;2.97;2.78;;;;;;;;;;5070261;27;93838;-74
2021/12/18 11:31:52;;;;;;;2.78;2.58;;;;;;;;;;5078888;27;92303;-74
2021/12/18 11:34:18;;;;;;;2.90;2.70;;;;;;;;;;5081839;27;93198;-74
2021/12/18 11:36:45;;;;;;;3.20;3.00;;;;;;;;;;5060972;27;91594;-74
2021/12/18 11:39:12;;;;;;;2.70;2.50;;;;;;;;;;5078328;27;92424;-74
2021/12/18 11:41:39;;;;;;;2.90;2.70;;;;;;;;;;5078296;27;92941;-74
2021/12/18 11:44:24;;;;;;;2.40;2.20;;;;;;;;;;5077184;27;95765;-74
2021/12/18 11:46:51;;;;;;;2.65;2.55;;;;;;;;;;5060578;27;96236;-74
2021/12/18 11:49:19;;;;;;;2.30;2.20;;;;;;;;;;5077964;27;93191;-74
2021/12/18 11:51:58;;;;;;;2.75;2.55;;;;;;;;;;5078594;27;92267;-74
2021/12/18 11:54:44;;;;;;;2.50;2.40;;;;;;;;;;5078362;27;92886;-74
2021/12/18 11:57:12;;;;;;;2.45;2.25;;;;;;;;;;5063237;27;93495;-74
2021/12/18 11:59:40;;;;;;;3.97;3.67;;;;;;;;;;5078017;27;93515;-74
2021/12/18 12:02:06;;;;;;;3.90;2.30;;;;;;;;;;5078647;27;93249;-74
2021/12/18 12:04:51;;;;;;;2.80;2.60;;;;;;;;;;5060389;27;92349;-74
2021/12/18 12:07:21;;;;;;;2.13;1.98;;;;;;;;;;5077830;27;93300;-73
2021/12/18 12:10:06;;;;;;;2.58;2.38;;;;;;;;;;5076095;27;95880;-74
2021/12/18 12:12:53;;;;;;;2.60;2.40;;;;;;;;;;5077399;27;92281;-74
2021/12/18 12:15:21;;;;;;;2.35;2.25;;;;;;;;;;5077586;27;92470;-74
2021/12/18 12:17:56;;;;;;;2.30;2.10;;;;;;;;;;5080914;27;93600;-74
2021/12/18 12:20:41;;;;;;;2.10;2.00;;;;;;;;;;5059882;27;95800;-74
2021/12/18 12:23:09;;;;;;;2.20;2.10;;;;;;;;;;5077729;27;93103;-74
2021/12/18 12:25:35;;;;;;;2.10;2.00;;;;;;;;;;5077862;27;92341;-75
2021/12/18 12:28:06;;;;;;;2.33;2.20;;;;;;;;;;5060259;27;94047;-74
2021/12/18 12:30:38;;;;;;;2.70;2.50;;;;;;;;;;5077014;27;93786;-74
2021/12/18 12:33:06;;;;;;;2.35;2.15;;;;;;;;;;5077791;27;92421;-75
2021/12/18 12:35:51;;;;;;;2.22;2.13;;;;;;;;;;5076030;27;95299;-74
2021/12/18 12:38:22;;;;;;;5.63;2.85;;;;;;;;;;5077670;27;93687;-75
2021/12/18 12:40:49;;;;;;;3.28;2.97;;;;;;;;;;5080712;27;92382;-74
2021/12/18 12:43:17;;;;;;;2.80;2.60;;;;;;;;;;5077616;27;92922;-74
2021/12/18 12:45:46;;;;;;;3.17;2.88;;;;;;;;;;5077105;27;92960;-74
2021/12/18 12:48:13;;;;;;;2.90;2.70;;;;;;;;;;5077777;27;92906;-75
2021/12/18 12:50:39;;;;;;;6.38;2.78;;;;;;;;;;5077496;27;93587;-75
2021/12/18 12:53:07;;;;;;;3.63;3.33;;;;;;;;;;5077822;27;91502;-75
2021/12/18 12:55:40;;;;;;;3.00;2.80;;;;;;;;;;5059162;27;94019;-74
2021/12/18 12:58:36;;;;;;;3.20;2.90;;;;;;;;;;5058594;27;93938;-74
2021/12/18 13:01:05;;;;;;;4.82;3.88;;;;;;;;;;5054280;27;94713;-74
2021/12/18 13:03:36;;;;;;;3.90;3.60;;;;;;;;;;5080133;27;95790;-75
2021/12/18 13:06:07;;;;;;;4.13;3.72;;;;;;;;;;5077158;27;92252;-74
2021/12/18 13:08:35;;;;;;;3.83;3.53;;;;;;;;;;5077010;27;93646;-75
2021/12/18 13:11:02;;;;;;;3.40;3.20;;;;;;;;;;5076752;27;93938;-74
2021/12/18 13:13:30;;;;;;;3.63;2.60;;;;;;;;;;5077432;27;92130;-75
2021/12/18 13:16:03;;;;;;;2.40;2.30;;;;;;;;;;5077451;27;92780;-74
2021/12/18 13:18:35;;;;;;;2.72;2.63;;;;;;;;;;5079460;27;93168;-75
2021/12/18 13:21:01;;;;;;;;;;;;;;;;;;5084900;27;92147;-74
2021/12/18 13:23:36;;;;;;;2.80;2.60;;;;;;;;;;5080016;27;121969;-74
2021/12/18 13:26:04;;;;;;;3.35;2.90;;;;;;;;;;5080924;27;96054;-74
2021/12/18 13:28:30;;;;;;;3.47;3.17;;;;;;;;;;5079770;27;93983;-74
2021/12/18 13:30:57;;;;;;;3.90;3.60;;;;;;;;;;5078820;27;93573;-74
2021/12/18 13:33:24;;;;;;;3.92;3.47;;;;;;;;;;5077546;27;92291;-73
2021/12/18 13:35:58;;;;;;;3.65;3.35;;;;;;;;;;5058883;27;93302;-74
2021/12/18 13:38:26;;;;;;;4.75;3.47;;;;;;;;;;5076573;27;93592;-74
2021/12/18 13:40:53;;;;;;;3.58;3.30;;;;;;;;;;5077065;27;92234;-74
2021/12/18 13:43:21;;;;;;;3.60;3.30;;;;;;;;;;5081026;27;93448;-74
2021/12/18 13:45:50;;;;;;;3.25;2.95;;;;;;;;;;5080273;27;93801;-74
2021/12/18 13:48:16;;;;;;;4.30;3.90;;;;;;;;;;5083326;27;92379;-74
2021/12/18 13:50:50;;;;;;;3.42;3.22;;;;;;;;;;5078126;27;96052;-74
2021/12/18 13:53:16;;;;;;;3.50;3.30;;;;;;;;;;5080115;27;92356;-74
2021/12/18 13:55:47;;;;;;;3.40;3.10;;;;;;;;;;5080230;27;93596;-75
2021/12/18 13:58:16;;;;;;;3.80;3.50;;;;;;;;;;5080171;27;93267;-74
2021/12/18 14:00:51;;;;;;;5.32;3.67;;;;;;;;;;5080146;27;92265;-74
2021/12/18 14:03:19;;;;;;;4.18;3.88;;;;;;;;;;5079971;27;93111;-74
2021/12/18 14:05:46;;;;;;;5.22;4.25;;;;;;;;;;5061438;27;95695;-74
2021/12/18 14:08:13;;;;;;;4.65;4.25;;;;;;;;;;5080420;27;91607;-74
2021/12/18 14:10:40;;;;;;;5.68;4.25;;;;;;;;;;5082491;27;93128;-74
2021/12/18 14:13:06;;;;;;;4.20;3.80;;;;;;;;;;5079957;27;92170;-73
2021/12/18 14:15:33;;;;;;;4.30;3.83;;;;;;;;;;5059891;27;94953;-74
2021/12/18 14:18:00;;;;;;;4.00;3.60;;;;;;;;;;5079475;27;93625;-73
2021/12/18 14:20:27;;;;;;;4.15;3.83;;;;;;;;;;5079718;27;92615;-74
2021/12/18 14:22:58;;;;;;;3.83;3.53;;;;;;;;;;5079791;27;93277;-74
2021/12/18 14:25:24;;;;;;;3.97;3.63;;;;;;;;;;5079617;27;93629;-74
2021/12/18 14:27:51;;;;;;;3.60;3.30;;;;;;;;;;5079544;27;92587;-74
2021/12/18 14:30:21;;;;;;;3.92;3.63;;;;;;;;;;5082330;27;93772;-74
2021/12/18 14:32:47;;;;;;;3.45;3.20;;;;;;;;;;5080346;27;91573;-73
2021/12/18 14:35:15;;;;;;;4.90;3.30;;;;;;;;;;5079479;27;92614;-73
2021/12/18 14:37:47;;;;;;;3.40;3.05;;;;;;;;;;5079321;27;93297;-74
2021/12/18 14:40:23;;;;;;;3.20;3.00;;;;;;;;;;5059611;27;94635;-75
2021/12/18 14:42:55;;;;;;;3.75;3.42;;;;;;;;;;5079618;27;95777;-74
2021/12/18 14:45:24;;;;;;;3.55;3.35;;;;;;;;;;5079357;27;93560;-73
2021/12/18 14:47:54;;;;;;;3.67;3.38;;;;;;;;;;5079349;27;92174;-73
2021/12/18 14:50:25;;;;;;;3.55;3.25;;;;;;;;;;5079624;27;93528;-73
2021/12/18 14:52:52;;;;;;;3.10;2.90;;;;;;;;;;5081570;27;93641;-73
2021/12/18 14:55:22;;;;;;;3.08;2.88;;;;;;;;;;5078964;27;93403;-75
2021/12/18 14:57:53;;;;;;;3.22;2.92;;;;;;;;;;5079798;27;92748;-74
2021/12/18 15:00:22;;;;;;;2.90;2.70;;;;;;;;;;5079313;27;92142;-75
2021/12/18 15:02:53;;;;;;;2.75;2.55;;;;;;;;;;5079218;27;94777;-74
2021/12/18 15:05:20;;;;;;;2.40;2.30;;;;;;;;;;5077324;27;95956;-74
2021/12/18 15:07:57;;;;;;;2.63;2.42;;;;;;;;;;5061297;27;93677;-74
2021/12/18 15:10:23;;;;;;;2.30;2.20;;;;;;;;;;5079310;27;92948;-74
2021/12/18 15:12:50;;;;;;;2.17;2.08;;;;;;;;;;5078547;27;93831;-75
2021/12/18 15:15:16;;;;;;;2.50;2.30;;;;;;;;;;5082096;27;92342;-74
2021/12/18 15:17:43;;;;;;;2.70;2.50;;;;;;;;;;5078986;27;92177;-75
2021/12/18 15:20:09;;;;;;;2.50;2.30;;;;;;;;;;5078379;27;92287;-75
2021/12/18 15:22:36;;;;;;;3.80;2.45;;;;;;;;;;5079444;27;93253;-75
2021/12/18 15:25:02;;;;;;;2.28;2.17;;;;;;;;;;5078834;27;93101;-75
2021/12/18 15:27:28;;;;;;;2.85;2.65;;;;;;;;;;5078673;27;92402;-74